sensor_id;sensor_type;location;lat;lon;timestamp;P1;durP1;ratioP1;P2;durP2;ratioP2
72493;SDS011;60520;49.182;-0.348;2023-05-02T00:02:14;1.10;;;0.70;;
72493;SDS011;60520;49.182;-0.348;2023-05-02T00:04:43;1.48;;;0.65;;
72493;SDS011;60520;49.182;-0.348;2023-05-02T00:07:10;1.25;;;0.60;;
72493;SDS011;60520;49.182;-0.348;2023-05-02T00:09:37;0.93;;;0.60;;
72493;SDS011;60520;49.182;-0.348;2023-05-02T00:12:04;1.35;;;0.70;;
72493;SDS011;60520;49.182;-0.348;2023-05-02T00:14:32;0.90;;;0.70;;
72493;SDS011;60520;49.182;-0.348;2023-05-02T00:16:59;1.52;;;0.80;;
72493;SDS011;60520;49.182;-0.348;2023-05-02T00:19:26;0.90;;;0.60;;
72493;SDS011;60520;49.182;-0.348;2023-05-02T00:21:54;1.25;;;0.77;;
72493;SDS011;60520;49.182;-0.348;2023-05-02T00:24:21;1.80;;;0.50;;
72493;SDS011;60520;49.182;-0.348;2023-05-02T00:26:48;1.95;;;0.82;;
72493;SDS011;60520;49.182;-0.348;2023-05-02T00:29:16;1.08;;;0.60;;
72493;SDS011;60520;49.182;-0.348;2023-05-02T00:31:43;2.90;;;0.80;;
72493;SDS011;60520;49.182;-0.348;2023-05-02T00:34:10;1.00;;;0.60;;
72493;SDS011;60520;49.182;-0.348;2023-05-02T00:36:38;1.83;;;0.70;;
72493;SDS011;60520;49.182;-0.348;2023-05-02T00:39:06;2.38;;;0.73;;
72493;SDS011;60520;49.182;-0.348;2023-05-02T00:41:33;1.60;;;0.73;;
72493;SDS011;60520;49.182;-0.348;2023-05-02T00:44:01;1.33;;;0.70;;
72493;SDS011;60520;49.182;-0.348;2023-05-02T00:46:28;0.98;;;0.60;;
72493;SDS011;60520;49.182;-0.348;2023-05-02T00:48:55;1.38;;;0.70;;
72493;SDS011;60520;49.182;-0.348;2023-05-02T00:51:22;1.88;;;0.82;;
72493;SDS011;60520;49.182;-0.348;2023-05-02T00:53:50;2.05;;;0.88;;
72493;SDS011;60520;49.182;-0.348;2023-05-02T00:56:19;1.25;;;0.75;;
72493;SDS011;60520;49.182;-0.348;2023-05-02T00:58:46;1.52;;;0.70;;
72493;SDS011;60520;49.182;-0.348;2023-05-02T01:01:17;1.30;;;0.80;;
72493;SDS011;60520;49.182;-0.348;2023-05-02T01:03:51;1.15;;;0.68;;
72493;SDS011;60520;49.182;-0.348;2023-05-02T01:06:24;1.33;;;0.82;;
72493;SDS011;60520;49.182;-0.348;2023-05-02T01:08:55;1.85;;;0.90;;
72493;SDS011;60520;49.182;-0.348;2023-05-02T01:11:29;2.08;;;0.70;;
72493;SDS011;60520;49.182;-0.348;2023-05-02T01:13:59;1.92;;;0.60;;
72493;SDS011;60520;49.182;-0.348;2023-05-02T01:16:28;1.15;;;0.70;;
72493;SDS011;60520;49.182;-0.348;2023-05-02T01:18:56;1.35;;;0.60;;
72493;SDS011;60520;49.182;-0.348;2023-05-02T01:21:25;1.40;;;0.70;;
72493;SDS011;60520;49.182;-0.348;2023-05-02T01:23:56;1.13;;;0.68;;
72493;SDS011;60520;49.182;-0.348;2023-05-02T01:26:29;1.48;;;0.80;;
72493;SDS011;60520;49.182;-0.348;2023-05-02T01:29:01;2.28;;;0.98;;
72493;SDS011;60520;49.182;-0.348;2023-05-02T01:31:30;1.60;;;0.88;;
72493;SDS011;60520;49.182;-0.348;2023-05-02T01:33:57;1.88;;;0.80;;
72493;SDS011;60520;49.182;-0.348;2023-05-02T01:36:27;1.77;;;0.90;;
72493;SDS011;60520;49.182;-0.348;2023-05-02T01:38:55;1.77;;;0.73;;
72493;SDS011;60520;49.182;-0.348;2023-05-02T01:41:24;1.05;;;0.75;;
72493;SDS011;60520;49.182;-0.348;2023-05-02T01:43:52;1.67;;;0.70;;
72493;SDS011;60520;49.182;-0.348;2023-05-02T01:46:21;1.95;;;0.60;;
72493;SDS011;60520;49.182;-0.348;2023-05-02T01:48:49;0.90;;;0.60;;
72493;SDS011;60520;49.182;-0.348;2023-05-02T01:51:17;1.02;;;0.70;;
72493;SDS011;60520;49.182;-0.348;2023-05-02T01:53:46;1.25;;;0.70;;
72493;SDS011;60520;49.182;-0.348;2023-05-02T01:56:14;1.67;;;0.70;;
72493;SDS011;60520;49.182;-0.348;2023-05-02T01:58:43;1.85;;;0.98;;
72493;SDS011;60520;49.182;-0.348;2023-05-02T02:01:11;1.15;;;0.60;;
72493;SDS011;60520;49.182;-0.348;2023-05-02T02:03:40;1.35;;;0.70;;
72493;SDS011;60520;49.182;-0.348;2023-05-02T02:06:07;1.83;;;0.70;;
72493;SDS011;60520;49.182;-0.348;2023-05-02T02:08:35;1.52;;;0.70;;
72493;SDS011;60520;49.182;-0.348;2023-05-02T02:11:03;1.42;;;0.80;;
72493;SDS011;60520;49.182;-0.348;2023-05-02T02:13:34;0.80;;;0.70;;
72493;SDS011;60520;49.182;-0.348;2023-05-02T02:16:03;1.42;;;0.80;;
72493;SDS011;60520;49.182;-0.348;2023-05-02T02:18:31;2.13;;;0.80;;
72493;SDS011;60520;49.182;-0.348;2023-05-02T02:21:02;0.95;;;0.70;;
72493;SDS011;60520;49.182;-0.348;2023-05-02T02:23:32;2.20;;;0.75;;
72493;SDS011;60520;49.182;-0.348;2023-05-02T02:26:00;1.20;;;0.60;;
72493;SDS011;60520;49.182;-0.348;2023-05-02T02:28:28;0.65;;;0.50;;
72493;SDS011;60520;49.182;-0.348;2023-05-02T02:30:55;1.67;;;0.80;;
72493;SDS011;60520;49.182;-0.348;2023-05-02T02:33:22;1.60;;;0.60;;
72493;SDS011;60520;49.182;-0.348;2023-05-02T02:35:52;1.30;;;0.88;;
72493;SDS011;60520;49.182;-0.348;2023-05-02T02:38:28;1.20;;;0.60;;
72493;SDS011;60520;49.182;-0.348;2023-05-02T02:40:59;1.58;;;0.60;;
72493;SDS011;60520;49.182;-0.348;2023-05-02T02:43:30;1.00;;;0.80;;
72493;SDS011;60520;49.182;-0.348;2023-05-02T02:46:01;1.98;;;0.95;;
72493;SDS011;60520;49.182;-0.348;2023-05-02T02:48:34;1.30;;;0.68;;
72493;SDS011;60520;49.182;-0.348;2023-05-02T02:51:05;1.30;;;0.70;;
72493;SDS011;60520;49.182;-0.348;2023-05-02T02:53:41;1.65;;;0.70;;
72493;SDS011;60520;49.182;-0.348;2023-05-02T02:56:12;1.77;;;0.80;;
72493;SDS011;60520;49.182;-0.348;2023-05-02T02:58:42;1.40;;;0.80;;
72493;SDS011;60520;49.182;-0.348;2023-05-02T03:01:13;1.58;;;0.90;;
72493;SDS011;60520;49.182;-0.348;2023-05-02T03:03:42;1.55;;;0.70;;
72493;SDS011;60520;49.182;-0.348;2023-05-02T03:06:09;0.95;;;0.70;;
72493;SDS011;60520;49.182;-0.348;2023-05-02T03:08:41;1.88;;;0.90;;
72493;SDS011;60520;49.182;-0.348;2023-05-02T03:11:08;1.48;;;0.70;;
72493;SDS011;60520;49.182;-0.348;2023-05-02T03:13:35;2.60;;;0.80;;
72493;SDS011;60520;49.182;-0.348;2023-05-02T03:18:48;0.88;;;0.60;;
72493;SDS011;60520;49.182;-0.348;2023-05-02T03:21:15;0.95;;;0.80;;
72493;SDS011;60520;49.182;-0.348;2023-05-02T03:23:44;1.95;;;0.80;;
72493;SDS011;60520;49.182;-0.348;2023-05-02T03:26:11;1.38;;;0.70;;
72493;SDS011;60520;49.182;-0.348;2023-05-02T03:28:38;1.95;;;0.90;;
72493;SDS011;60520;49.182;-0.348;2023-05-02T03:31:06;1.45;;;0.70;;
72493;SDS011;60520;49.182;-0.348;2023-05-02T03:33:33;1.65;;;0.73;;
72493;SDS011;60520;49.182;-0.348;2023-05-02T03:36:00;1.73;;;0.80;;
72493;SDS011;60520;49.182;-0.348;2023-05-02T03:38:28;2.35;;;0.98;;
72493;SDS011;60520;49.182;-0.348;2023-05-02T03:40:57;1.08;;;0.63;;
72493;SDS011;60520;49.182;-0.348;2023-05-02T03:43:24;2.28;;;0.70;;
72493;SDS011;60520;49.182;-0.348;2023-05-02T03:45:51;1.13;;;0.70;;
72493;SDS011;60520;49.182;-0.348;2023-05-02T03:48:18;1.35;;;0.70;;
72493;SDS011;60520;49.182;-0.348;2023-05-02T03:50:45;1.50;;;0.82;;
72493;SDS011;60520;49.182;-0.348;2023-05-02T03:53:13;2.15;;;0.80;;
72493;SDS011;60520;49.182;-0.348;2023-05-02T03:55:40;1.48;;;0.90;;
72493;SDS011;60520;49.182;-0.348;2023-05-02T03:58:09;1.55;;;0.70;;
72493;SDS011;60520;49.182;-0.348;2023-05-02T04:00:36;1.55;;;0.82;;
72493;SDS011;60520;49.182;-0.348;2023-05-02T04:03:03;2.85;;;0.77;;
72493;SDS011;60520;49.182;-0.348;2023-05-02T04:05:31;1.92;;;0.85;;
72493;SDS011;60520;49.182;-0.348;2023-05-02T04:07:58;1.17;;;0.70;;
72493;SDS011;60520;49.182;-0.348;2023-05-02T04:10:25;1.52;;;0.80;;
72493;SDS011;60520;49.182;-0.348;2023-05-02T04:12:52;1.40;;;0.88;;
72493;SDS011;60520;49.182;-0.348;2023-05-02T04:15:21;2.63;;;0.90;;
72493;SDS011;60520;49.182;-0.348;2023-05-02T04:17:48;1.58;;;0.80;;
72493;SDS011;60520;49.182;-0.348;2023-05-02T04:20:15;1.20;;;0.65;;
72493;SDS011;60520;49.182;-0.348;2023-05-02T04:22:42;1.70;;;0.75;;
72493;SDS011;60520;49.182;-0.348;2023-05-02T04:25:12;2.38;;;1.10;;
72493;SDS011;60520;49.182;-0.348;2023-05-02T04:27:39;2.20;;;0.80;;
72493;SDS011;60520;49.182;-0.348;2023-05-02T04:30:06;0.82;;;0.60;;
72493;SDS011;60520;49.182;-0.348;2023-05-02T04:32:36;1.60;;;0.63;;
72493;SDS011;60520;49.182;-0.348;2023-05-02T04:35:03;1.52;;;0.73;;
72493;SDS011;60520;49.182;-0.348;2023-05-02T04:37:30;1.60;;;0.82;;
72493;SDS011;60520;49.182;-0.348;2023-05-02T04:39:57;1.55;;;0.73;;
72493;SDS011;60520;49.182;-0.348;2023-05-02T04:42:25;1.88;;;0.93;;
72493;SDS011;60520;49.182;-0.348;2023-05-02T04:44:52;2.45;;;0.80;;
72493;SDS011;60520;49.182;-0.348;2023-05-02T04:47:19;1.80;;;0.80;;
72493;SDS011;60520;49.182;-0.348;2023-05-02T04:49:47;1.77;;;0.70;;
72493;SDS011;60520;49.182;-0.348;2023-05-02T04:52:15;2.60;;;0.90;;
72493;SDS011;60520;49.182;-0.348;2023-05-02T04:54:42;1.50;;;0.70;;
72493;SDS011;60520;49.182;-0.348;2023-05-02T04:57:10;1.88;;;0.80;;
72493;SDS011;60520;49.182;-0.348;2023-05-02T04:59:37;1.67;;;0.77;;
72493;SDS011;60520;49.182;-0.348;2023-05-02T05:02:04;0.82;;;0.65;;
72493;SDS011;60520;49.182;-0.348;2023-05-02T05:04:32;1.73;;;0.77;;
72493;SDS011;60520;49.182;-0.348;2023-05-02T05:07:00;1.65;;;0.82;;
72493;SDS011;60520;49.182;-0.348;2023-05-02T05:09:28;1.05;;;0.60;;
72493;SDS011;60520;49.182;-0.348;2023-05-02T05:11:55;0.80;;;0.60;;
72493;SDS011;60520;49.182;-0.348;2023-05-02T05:14:22;1.55;;;0.80;;
72493;SDS011;60520;49.182;-0.348;2023-05-02T05:16:49;1.85;;;0.85;;
72493;SDS011;60520;49.182;-0.348;2023-05-02T05:19:16;1.42;;;0.60;;
72493;SDS011;60520;49.182;-0.348;2023-05-02T05:21:44;1.48;;;0.75;;
72493;SDS011;60520;49.182;-0.348;2023-05-02T05:24:12;1.63;;;0.80;;
72493;SDS011;60520;49.182;-0.348;2023-05-02T05:26:39;2.30;;;0.85;;
72493;SDS011;60520;49.182;-0.348;2023-05-02T05:29:06;1.52;;;0.80;;
72493;SDS011;60520;49.182;-0.348;2023-05-02T05:31:33;3.47;;;0.90;;
72493;SDS011;60520;49.182;-0.348;2023-05-02T05:34:01;1.35;;;0.75;;
72493;SDS011;60520;49.182;-0.348;2023-05-02T05:36:28;1.30;;;0.70;;
72493;SDS011;60520;49.182;-0.348;2023-05-02T05:38:56;1.45;;;0.60;;
72493;SDS011;60520;49.182;-0.348;2023-05-02T05:41:24;1.70;;;0.88;;
72493;SDS011;60520;49.182;-0.348;2023-05-02T05:43:52;11.00;;;0.98;;
72493;SDS011;60520;49.182;-0.348;2023-05-02T05:46:20;6.20;;;1.10;;
72493;SDS011;60520;49.182;-0.348;2023-05-02T05:48:47;3.15;;;0.75;;
72493;SDS011;60520;49.182;-0.348;2023-05-02T05:51:14;2.70;;;0.80;;
72493;SDS011;60520;49.182;-0.348;2023-05-02T05:53:41;1.05;;;0.80;;
72493;SDS011;60520;49.182;-0.348;2023-05-02T05:56:08;2.15;;;0.80;;
72493;SDS011;60520;49.182;-0.348;2023-05-02T05:58:37;2.55;;;0.70;;
72493;SDS011;60520;49.182;-0.348;2023-05-02T06:01:05;0.90;;;0.60;;
72493;SDS011;60520;49.182;-0.348;2023-05-02T06:03:32;2.40;;;0.77;;
72493;SDS011;60520;49.182;-0.348;2023-05-02T06:05:59;4.32;;;0.73;;
72493;SDS011;60520;49.182;-0.348;2023-05-02T06:08:26;29.67;;;2.90;;
72493;SDS011;60520;49.182;-0.348;2023-05-02T06:10:53;20.63;;;1.77;;
72493;SDS011;60520;49.182;-0.348;2023-05-02T06:13:20;21.48;;;2.03;;
72493;SDS011;60520;49.182;-0.348;2023-05-02T06:15:49;11.98;;;1.73;;
72493;SDS011;60520;49.182;-0.348;2023-05-02T06:18:16;22.20;;;1.75;;
72493;SDS011;60520;49.182;-0.348;2023-05-02T06:20:44;17.75;;;1.60;;
72493;SDS011;60520;49.182;-0.348;2023-05-02T06:23:11;12.25;;;1.58;;
72493;SDS011;60520;49.182;-0.348;2023-05-02T06:25:38;9.70;;;1.88;;
72493;SDS011;60520;49.182;-0.348;2023-05-02T06:28:05;7.68;;;1.48;;
72493;SDS011;60520;49.182;-0.348;2023-05-02T06:30:33;10.02;;;1.40;;
72493;SDS011;60520;49.182;-0.348;2023-05-02T06:33:04;12.60;;;1.58;;
72493;SDS011;60520;49.182;-0.348;2023-05-02T06:35:31;6.78;;;1.27;;
72493;SDS011;60520;49.182;-0.348;2023-05-02T06:37:58;17.50;;;1.90;;
72493;SDS011;60520;49.182;-0.348;2023-05-02T06:40:25;11.57;;;1.60;;
72493;SDS011;60520;49.182;-0.348;2023-05-02T06:42:52;12.38;;;1.58;;
72493;SDS011;60520;49.182;-0.348;2023-05-02T06:45:20;8.60;;;1.30;;
72493;SDS011;60520;49.182;-0.348;2023-05-02T06:47:47;13.98;;;1.80;;
72493;SDS011;60520;49.182;-0.348;2023-05-02T06:50:16;8.80;;;1.50;;
72493;SDS011;60520;49.182;-0.348;2023-05-02T06:52:43;10.27;;;1.30;;
72493;SDS011;60520;49.182;-0.348;2023-05-02T06:55:10;8.20;;;1.30;;
72493;SDS011;60520;49.182;-0.348;2023-05-02T06:57:37;10.65;;;1.60;;
72493;SDS011;60520;49.182;-0.348;2023-05-02T07:00:05;6.95;;;1.13;;
72493;SDS011;60520;49.182;-0.348;2023-05-02T07:02:32;8.55;;;1.30;;
72493;SDS011;60520;49.182;-0.348;2023-05-02T07:04:59;7.03;;;1.60;;
72493;SDS011;60520;49.182;-0.348;2023-05-02T07:07:28;5.15;;;1.40;;
72493;SDS011;60520;49.182;-0.348;2023-05-02T07:09:55;5.97;;;1.40;;
72493;SDS011;60520;49.182;-0.348;2023-05-02T07:12:23;7.88;;;1.38;;
72493;SDS011;60520;49.182;-0.348;2023-05-02T07:14:50;11.20;;;1.27;;
72493;SDS011;60520;49.182;-0.348;2023-05-02T07:17:21;6.93;;;1.45;;
72493;SDS011;60520;49.182;-0.348;2023-05-02T07:19:49;7.70;;;1.30;;
72493;SDS011;60520;49.182;-0.348;2023-05-02T07:22:19;9.05;;;1.27;;
72493;SDS011;60520;49.182;-0.348;2023-05-02T07:24:48;6.82;;;1.17;;
72493;SDS011;60520;49.182;-0.348;2023-05-02T07:27:22;2.65;;;0.90;;
72493;SDS011;60520;49.182;-0.348;2023-05-02T07:29:50;7.28;;;1.50;;
72493;SDS011;60520;49.182;-0.348;2023-05-02T07:32:18;5.03;;;1.08;;
72493;SDS011;60520;49.182;-0.348;2023-05-02T07:34:46;4.70;;;1.10;;
72493;SDS011;60520;49.182;-0.348;2023-05-02T07:37:13;2.75;;;1.00;;
72493;SDS011;60520;49.182;-0.348;2023-05-02T07:39:40;4.97;;;1.10;;
72493;SDS011;60520;49.182;-0.348;2023-05-02T07:42:09;4.50;;;1.05;;
72493;SDS011;60520;49.182;-0.348;2023-05-02T07:44:36;4.28;;;1.00;;
72493;SDS011;60520;49.182;-0.348;2023-05-02T07:47:04;4.13;;;0.90;;
72493;SDS011;60520;49.182;-0.348;2023-05-02T07:49:31;4.43;;;1.10;;
72493;SDS011;60520;49.182;-0.348;2023-05-02T07:51:58;5.60;;;1.27;;
72493;SDS011;60520;49.182;-0.348;2023-05-02T07:54:25;8.35;;;1.00;;
72493;SDS011;60520;49.182;-0.348;2023-05-02T07:56:52;6.38;;;1.10;;
72493;SDS011;60520;49.182;-0.348;2023-05-02T07:59:23;4.63;;;0.75;;
72493;SDS011;60520;49.182;-0.348;2023-05-02T08:01:50;7.65;;;1.20;;
72493;SDS011;60520;49.182;-0.348;2023-05-02T08:04:17;5.20;;;1.10;;
72493;SDS011;60520;49.182;-0.348;2023-05-02T08:06:44;3.17;;;1.00;;
72493;SDS011;60520;49.182;-0.348;2023-05-02T08:09:11;7.93;;;1.30;;
72493;SDS011;60520;49.182;-0.348;2023-05-02T08:11:38;5.38;;;1.02;;
72493;SDS011;60520;49.182;-0.348;2023-05-02T08:14:06;4.43;;;1.10;;
72493;SDS011;60520;49.182;-0.348;2023-05-02T08:16:34;5.28;;;1.15;;
72493;SDS011;60520;49.182;-0.348;2023-05-02T08:19:01;3.47;;;1.00;;
72493;SDS011;60520;49.182;-0.348;2023-05-02T08:21:28;3.50;;;0.80;;
72493;SDS011;60520;49.182;-0.348;2023-05-02T08:23:56;3.03;;;0.90;;
72493;SDS011;60520;49.182;-0.348;2023-05-02T08:26:23;5.07;;;1.05;;
72493;SDS011;60520;49.182;-0.348;2023-05-02T08:28:50;2.40;;;0.90;;
72493;SDS011;60520;49.182;-0.348;2023-05-02T08:31:18;3.33;;;0.93;;
72493;SDS011;60520;49.182;-0.348;2023-05-02T08:33:46;4.88;;;1.00;;
72493;SDS011;60520;49.182;-0.348;2023-05-02T08:36:14;2.17;;;0.80;;
72493;SDS011;60520;49.182;-0.348;2023-05-02T08:38:41;2.08;;;0.80;;
72493;SDS011;60520;49.182;-0.348;2023-05-02T08:41:09;3.10;;;0.85;;
72493;SDS011;60520;49.182;-0.348;2023-05-02T08:43:37;4.18;;;0.85;;
72493;SDS011;60520;49.182;-0.348;2023-05-02T08:46:04;4.45;;;0.85;;
72493;SDS011;60520;49.182;-0.348;2023-05-02T08:48:33;3.92;;;0.82;;
72493;SDS011;60520;49.182;-0.348;2023-05-02T08:51:02;3.72;;;0.88;;
72493;SDS011;60520;49.182;-0.348;2023-05-02T08:53:30;2.95;;;0.90;;
72493;SDS011;60520;49.182;-0.348;2023-05-02T08:55:58;3.95;;;0.90;;
72493;SDS011;60520;49.182;-0.348;2023-05-02T08:58:25;3.13;;;0.80;;
72493;SDS011;60520;49.182;-0.348;2023-05-02T09:00:54;3.78;;;0.90;;
72493;SDS011;60520;49.182;-0.348;2023-05-02T09:03:22;2.35;;;0.82;;
72493;SDS011;60520;49.182;-0.348;2023-05-02T09:05:53;3.17;;;0.98;;
72493;SDS011;60520;49.182;-0.348;2023-05-02T09:08:23;1.65;;;0.80;;
72493;SDS011;60520;49.182;-0.348;2023-05-02T09:10:50;4.25;;;0.93;;
72493;SDS011;60520;49.182;-0.348;2023-05-02T09:13:27;3.55;;;1.08;;
72493;SDS011;60520;49.182;-0.348;2023-05-02T09:15:58;2.95;;;0.73;;
72493;SDS011;60520;49.182;-0.348;2023-05-02T09:18:27;1.92;;;0.70;;
72493;SDS011;60520;49.182;-0.348;2023-05-02T09:20:55;3.38;;;0.80;;
72493;SDS011;60520;49.182;-0.348;2023-05-02T09:23:31;3.45;;;1.10;;
72493;SDS011;60520;49.182;-0.348;2023-05-02T09:25:59;3.75;;;0.80;;
72493;SDS011;60520;49.182;-0.348;2023-05-02T09:28:39;1.27;;;0.70;;
72493;SDS011;60520;49.182;-0.348;2023-05-02T09:31:07;2.42;;;0.70;;
72493;SDS011;60520;49.182;-0.348;2023-05-02T09:33:34;1.58;;;0.80;;
72493;SDS011;60520;49.182;-0.348;2023-05-02T09:36:01;1.80;;;0.65;;
72493;SDS011;60520;49.182;-0.348;2023-05-02T09:38:28;4.75;;;0.82;;
72493;SDS011;60520;49.182;-0.348;2023-05-02T09:40:57;3.50;;;0.70;;
72493;SDS011;60520;49.182;-0.348;2023-05-02T09:43:27;2.95;;;0.80;;
72493;SDS011;60520;49.182;-0.348;2023-05-02T09:45:58;2.55;;;0.75;;
72493;SDS011;60520;49.182;-0.348;2023-05-02T09:48:26;2.78;;;0.73;;
72493;SDS011;60520;49.182;-0.348;2023-05-02T09:50:54;3.40;;;0.70;;
72493;SDS011;60520;49.182;-0.348;2023-05-02T09:53:21;2.92;;;0.93;;
72493;SDS011;60520;49.182;-0.348;2023-05-02T09:55:58;0.88;;;0.60;;
72493;SDS011;60520;49.182;-0.348;2023-05-02T09:58:26;2.40;;;0.65;;
72493;SDS011;60520;49.182;-0.348;2023-05-02T10:00:55;2.45;;;0.60;;
72493;SDS011;60520;49.182;-0.348;2023-05-02T10:03:22;1.65;;;0.80;;
72493;SDS011;60520;49.182;-0.348;2023-05-02T10:05:50;1.98;;;0.70;;
72493;SDS011;60520;49.182;-0.348;2023-05-02T10:08:19;2.97;;;0.70;;
72493;SDS011;60520;49.182;-0.348;2023-05-02T10:10:48;1.02;;;0.50;;
72493;SDS011;60520;49.182;-0.348;2023-05-02T10:13:18;1.02;;;0.70;;
72493;SDS011;60520;49.182;-0.348;2023-05-02T10:15:45;1.75;;;0.60;;
72493;SDS011;60520;49.182;-0.348;2023-05-02T10:18:16;1.90;;;0.65;;
72493;SDS011;60520;49.182;-0.348;2023-05-02T10:20:47;1.70;;;0.85;;
72493;SDS011;60520;49.182;-0.348;2023-05-02T10:23:18;2.53;;;0.70;;
72493;SDS011;60520;49.182;-0.348;2023-05-02T10:25:46;2.70;;;0.63;;
72493;SDS011;60520;49.182;-0.348;2023-05-02T10:28:14;1.30;;;0.80;;
72493;SDS011;60520;49.182;-0.348;2023-05-02T10:30:42;1.45;;;0.65;;
72493;SDS011;60520;49.182;-0.348;2023-05-02T10:33:10;1.90;;;0.82;;
72493;SDS011;60520;49.182;-0.348;2023-05-02T10:35:41;1.40;;;0.60;;
72493;SDS011;60520;49.182;-0.348;2023-05-02T10:38:09;0.98;;;0.70;;
72493;SDS011;60520;49.182;-0.348;2023-05-02T10:40:37;2.90;;;0.88;;
72493;SDS011;60520;49.182;-0.348;2023-05-02T10:43:05;1.17;;;0.60;;
72493;SDS011;60520;49.182;-0.348;2023-05-02T10:45:33;1.88;;;0.65;;
72493;SDS011;60520;49.182;-0.348;2023-05-02T10:48:15;1.77;;;0.90;;
72493;SDS011;60520;49.182;-0.348;2023-05-02T10:50:43;1.92;;;0.73;;
72493;SDS011;60520;49.182;-0.348;2023-05-02T10:53:21;1.27;;;0.80;;
72493;SDS011;60520;49.182;-0.348;2023-05-02T10:58:30;1.27;;;0.60;;
72493;SDS011;60520;49.182;-0.348;2023-05-02T11:03:56;1.02;;;0.63;;
72493;SDS011;60520;49.182;-0.348;2023-05-02T11:06:24;2.17;;;0.65;;
72493;SDS011;60520;49.182;-0.348;2023-05-02T11:08:51;1.00;;;0.50;;
72493;SDS011;60520;49.182;-0.348;2023-05-02T11:11:37;3.45;;;0.80;;
72493;SDS011;60520;49.182;-0.348;2023-05-02T11:14:05;1.95;;;0.73;;
72493;SDS011;60520;49.182;-0.348;2023-05-02T11:19:18;3.00;;;0.73;;
72493;SDS011;60520;49.182;-0.348;2023-05-02T11:21:46;2.05;;;0.60;;
72493;SDS011;60520;49.182;-0.348;2023-05-02T11:29:53;1.08;;;0.55;;
72493;SDS011;60520;49.182;-0.348;2023-05-02T11:32:20;1.65;;;0.50;;
72493;SDS011;60520;49.182;-0.348;2023-05-02T11:34:49;1.42;;;0.70;;
72493;SDS011;60520;49.182;-0.348;2023-05-02T11:37:17;2.35;;;0.90;;
72493;SDS011;60520;49.182;-0.348;2023-05-02T11:39:45;1.60;;;0.70;;
72493;SDS011;60520;49.182;-0.348;2023-05-02T11:42:26;2.38;;;0.70;;
72493;SDS011;60520;49.182;-0.348;2023-05-02T11:44:54;2.05;;;0.98;;
72493;SDS011;60520;49.182;-0.348;2023-05-02T11:47:21;2.75;;;0.90;;
72493;SDS011;60520;49.182;-0.348;2023-05-02T11:49:50;1.17;;;0.68;;
72493;SDS011;60520;49.182;-0.348;2023-05-02T11:52:17;0.98;;;0.73;;
72493;SDS011;60520;49.182;-0.348;2023-05-02T11:54:44;2.80;;;0.90;;
72493;SDS011;60520;49.182;-0.348;2023-05-02T11:57:11;1.92;;;1.02;;
72493;SDS011;60520;49.182;-0.348;2023-05-02T12:02:34;2.88;;;1.00;;
72493;SDS011;60520;49.182;-0.348;2023-05-02T12:05:03;4.55;;;1.00;;
72493;SDS011;60520;49.182;-0.348;2023-05-02T12:07:34;1.15;;;0.75;;
72493;SDS011;60520;49.182;-0.348;2023-05-02T12:10:02;3.03;;;1.00;;
72493;SDS011;60520;49.182;-0.348;2023-05-02T12:12:29;3.58;;;1.40;;
72493;SDS011;60520;49.182;-0.348;2023-05-02T12:14:57;1.50;;;0.70;;
72493;SDS011;60520;49.182;-0.348;2023-05-02T12:17:24;3.58;;;1.23;;
72493;SDS011;60520;49.182;-0.348;2023-05-02T12:19:51;2.15;;;1.20;;
72493;SDS011;60520;49.182;-0.348;2023-05-02T12:22:21;2.60;;;0.90;;
72493;SDS011;60520;49.182;-0.348;2023-05-02T12:24:49;5.40;;;1.38;;
72493;SDS011;60520;49.182;-0.348;2023-05-02T12:27:17;4.40;;;1.17;;
72493;SDS011;60520;49.182;-0.348;2023-05-02T12:29:45;3.25;;;1.20;;
72493;SDS011;60520;49.182;-0.348;2023-05-02T12:32:13;2.53;;;1.15;;
72493;SDS011;60520;49.182;-0.348;2023-05-02T12:34:40;2.20;;;1.20;;
72493;SDS011;60520;49.182;-0.348;2023-05-02T12:37:08;3.53;;;1.25;;
72493;SDS011;60520;49.182;-0.348;2023-05-02T12:39:37;3.88;;;1.30;;
72493;SDS011;60520;49.182;-0.348;2023-05-02T12:42:08;3.20;;;1.08;;
72493;SDS011;60520;49.182;-0.348;2023-05-02T12:44:36;3.80;;;1.33;;
72493;SDS011;60520;49.182;-0.348;2023-05-02T12:47:03;4.22;;;1.30;;
72493;SDS011;60520;49.182;-0.348;2023-05-02T12:49:30;3.33;;;1.30;;
72493;SDS011;60520;49.182;-0.348;2023-05-02T12:51:58;3.55;;;1.30;;
72493;SDS011;60520;49.182;-0.348;2023-05-02T12:54:25;9.98;;;1.35;;
72493;SDS011;60520;49.182;-0.348;2023-05-02T12:56:53;5.55;;;1.40;;
72493;SDS011;60520;49.182;-0.348;2023-05-02T12:59:25;3.20;;;1.10;;
72493;SDS011;60520;49.182;-0.348;2023-05-02T13:01:52;4.20;;;1.50;;
72493;SDS011;60520;49.182;-0.348;2023-05-02T13:04:19;2.97;;;1.10;;
72493;SDS011;60520;49.182;-0.348;2023-05-02T13:06:46;3.33;;;1.25;;
72493;SDS011;60520;49.182;-0.348;2023-05-02T13:09:13;2.85;;;1.10;;
72493;SDS011;60520;49.182;-0.348;2023-05-02T13:11:41;2.88;;;1.20;;
72493;SDS011;60520;49.182;-0.348;2023-05-02T13:14:09;5.25;;;1.42;;
72493;SDS011;60520;49.182;-0.348;2023-05-02T13:16:36;4.53;;;1.27;;
72493;SDS011;60520;49.182;-0.348;2023-05-02T13:19:04;5.95;;;1.30;;
72493;SDS011;60520;49.182;-0.348;2023-05-02T13:21:31;3.63;;;1.00;;
72493;SDS011;60520;49.182;-0.348;2023-05-02T13:23:58;3.13;;;1.30;;
72493;SDS011;60520;49.182;-0.348;2023-05-02T13:26:28;4.85;;;1.40;;
72493;SDS011;60520;49.182;-0.348;2023-05-02T13:28:55;3.53;;;1.27;;
72493;SDS011;60520;49.182;-0.348;2023-05-02T13:31:23;2.05;;;1.05;;
72493;SDS011;60520;49.182;-0.348;2023-05-02T13:33:50;2.70;;;1.10;;
72493;SDS011;60520;49.182;-0.348;2023-05-02T13:36:17;4.30;;;1.30;;
72493;SDS011;60520;49.182;-0.348;2023-05-02T13:38:45;3.45;;;1.35;;
72493;SDS011;60520;49.182;-0.348;2023-05-02T13:41:12;5.85;;;1.42;;
72493;SDS011;60520;49.182;-0.348;2023-05-02T13:43:39;1.90;;;1.10;;
72493;SDS011;60520;49.182;-0.348;2023-05-02T13:46:06;5.93;;;1.65;;
72493;SDS011;60520;49.182;-0.348;2023-05-02T13:48:34;5.80;;;1.70;;
72493;SDS011;60520;49.182;-0.348;2023-05-02T13:51:02;3.58;;;1.27;;
72493;SDS011;60520;49.182;-0.348;2023-05-02T13:53:29;4.53;;;1.55;;
72493;SDS011;60520;49.182;-0.348;2023-05-02T13:55:56;3.10;;;1.80;;
72493;SDS011;60520;49.182;-0.348;2023-05-02T13:58:23;5.13;;;1.40;;
72493;SDS011;60520;49.182;-0.348;2023-05-02T14:00:50;3.83;;;1.33;;
72493;SDS011;60520;49.182;-0.348;2023-05-02T14:03:18;5.60;;;1.60;;
72493;SDS011;60520;49.182;-0.348;2023-05-02T14:05:46;4.85;;;1.40;;
72493;SDS011;60520;49.182;-0.348;2023-05-02T14:08:13;2.97;;;1.30;;
72493;SDS011;60520;49.182;-0.348;2023-05-02T14:10:42;3.58;;;1.92;;
72493;SDS011;60520;49.182;-0.348;2023-05-02T14:13:09;5.18;;;1.80;;
72493;SDS011;60520;49.182;-0.348;2023-05-02T14:15:36;2.28;;;1.55;;
72493;SDS011;60520;49.182;-0.348;2023-05-02T14:18:03;5.72;;;1.65;;
72493;SDS011;60520;49.182;-0.348;2023-05-02T14:20:30;7.03;;;2.00;;
72493;SDS011;60520;49.182;-0.348;2023-05-02T14:22:59;5.63;;;1.92;;
72493;SDS011;60520;49.182;-0.348;2023-05-02T14:25:26;5.20;;;2.05;;
72493;SDS011;60520;49.182;-0.348;2023-05-02T14:27:53;3.70;;;2.30;;
72493;SDS011;60520;49.182;-0.348;2023-05-02T14:30:20;5.82;;;2.25;;
72493;SDS011;60520;49.182;-0.348;2023-05-02T14:32:47;6.88;;;2.08;;
72493;SDS011;60520;49.182;-0.348;2023-05-02T14:35:14;5.75;;;2.00;;
72493;SDS011;60520;49.182;-0.348;2023-05-02T14:37:41;5.78;;;2.40;;
72493;SDS011;60520;49.182;-0.348;2023-05-02T14:40:12;4.57;;;2.08;;
72493;SDS011;60520;49.182;-0.348;2023-05-02T14:42:40;6.57;;;1.95;;
72493;SDS011;60520;49.182;-0.348;2023-05-02T14:45:07;9.45;;;2.30;;
72493;SDS011;60520;49.182;-0.348;2023-05-02T14:47:35;15.55;;;2.30;;
72493;SDS011;60520;49.182;-0.348;2023-05-02T14:50:02;9.95;;;1.95;;
72493;SDS011;60520;49.182;-0.348;2023-05-02T14:52:30;15.02;;;2.50;;
72493;SDS011;60520;49.182;-0.348;2023-05-02T14:54:57;9.05;;;2.60;;
72493;SDS011;60520;49.182;-0.348;2023-05-02T14:57:26;7.20;;;2.15;;
72493;SDS011;60520;49.182;-0.348;2023-05-02T14:59:53;8.15;;;2.35;;